Main page
METAR-TAF:

METAR-TAF

Airports :

Rajkot Airport

Rajkot, India

latitude: 22-18N, longitude: 070-47E, elevation: 134 m

Current weather observation

The report was made 38 minutes ago, at 00:00 UTC
Wind 5 kt from the West/Northwest
Temperature 29°C
Humidity 55%
Pressure 1004 hPa
Visibility: 6000 m
Scattered clouds at a height of 8000 ft

METAR: VARK 240000Z 29005KT 6000 SCT080 29/19 Q1004

Time: 06:08 (00:38 UTC)


TAF: missing

Weather observations and forecasts of more than 4000 airports (METAR and TAF reports).

The available stations are represented by yellow and red dots on the map.

Hover mouse over dot to see the name of the station.

Then click to see weather observations and forecasts.

To change the map : click on the green buttons with a black cross to zoom in, on the green button with a dash to zoom out, or on the green arrows for adjacent maps.


METAR-TAF: